createdAt,value
2023-05-09T00:04:45.956Z,4.00
2023-05-09T00:14:51.717Z,3.95
2023-05-09T00:24:55.565Z,4.45
2023-05-09T00:35:00.746Z,3.67
2023-05-09T00:45:05.310Z,3.55
2023-05-09T00:55:11.780Z,3.67
2023-05-09T01:05:16.641Z,3.22
2023-05-09T01:15:31.316Z,4.18
2023-05-09T01:25:52.585Z,4.28
2023-05-09T01:36:06.471Z,4.00
2023-05-09T01:46:11.096Z,3.85
2023-05-09T01:56:16.913Z,3.70
2023-05-09T02:06:23.620Z,3.45
2023-05-09T02:16:31.370Z,3.60
2023-05-09T02:26:36.414Z,4.00
2023-05-09T02:36:42.409Z,3.85
2023-05-09T02:46:45.990Z,4.03
2023-05-09T02:56:51.080Z,3.50
2023-05-09T03:06:54.961Z,4.50
2023-05-09T03:16:59.903Z,3.63
2023-05-09T03:27:03.534Z,3.85
2023-05-09T03:37:08.583Z,3.70
2023-05-09T03:47:13.435Z,3.47
2023-05-09T03:57:19.732Z,3.53
2023-05-09T04:07:23.517Z,4.07
2023-05-09T04:17:28.530Z,4.00
2023-05-09T04:27:32.162Z,4.07
2023-05-09T04:37:37.178Z,4.38
2023-05-09T04:47:40.951Z,3.78
2023-05-09T04:57:46.273Z,4.75
2023-05-09T05:07:50.041Z,4.28
2023-05-09T05:17:55.178Z,6.05
2023-05-09T05:27:58.857Z,5.28
2023-05-09T05:38:03.839Z,3.70
2023-05-09T05:48:07.722Z,4.40
2023-05-09T05:58:12.804Z,4.65
2023-05-09T06:08:16.404Z,5.07
2023-05-09T06:18:21.412Z,5.10
2023-05-09T06:28:25.070Z,3.60
2023-05-09T06:38:30.084Z,4.65
2023-05-09T06:48:33.731Z,4.53
2023-05-09T06:58:39.431Z,4.57
2023-05-09T07:08:43.259Z,5.47
2023-05-09T07:18:48.225Z,4.53
2023-05-09T07:28:51.922Z,4.10
2023-05-09T07:38:57.170Z,5.78
2023-05-09T07:49:00.811Z,4.65
2023-05-09T07:59:06.078Z,4.82
2023-05-09T08:09:10.229Z,3.95
2023-05-09T08:19:15.139Z,4.32
2023-05-09T08:29:18.874Z,4.10
2023-05-09T08:39:23.848Z,4.75
2023-05-09T08:49:28.569Z,4.22
2023-05-09T08:59:36.706Z,3.78
2023-05-09T09:09:45.928Z,4.80
2023-05-09T09:19:55.997Z,4.22
2023-05-09T09:30:08.680Z,4.20
2023-05-09T09:40:14.837Z,3.35
2023-05-09T09:50:23.149Z,3.72
2023-05-09T10:00:30.188Z,3.33
2023-05-09T10:10:36.116Z,4.43
2023-05-09T10:20:42.072Z,5.55
2023-05-09T10:30:58.924Z,3.90
2023-05-09T10:41:05.455Z,4.95
2023-05-09T10:51:10.283Z,3.35
2023-05-09T11:01:15.374Z,3.75
2023-05-09T11:11:25.672Z,2.90
2023-05-09T11:21:30.768Z,2.90
2023-05-09T11:31:34.504Z,3.30
2023-05-09T11:41:44.725Z,3.75
2023-05-09T11:51:48.645Z,2.08
2023-05-09T12:01:54.435Z,1.88
2023-05-09T12:11:58.011Z,1.90
2023-05-09T12:22:06.569Z,1.90
2023-05-09T12:32:10.389Z,1.70
2023-05-09T12:42:15.722Z,1.63
2023-05-09T12:52:21.674Z,1.60
2023-05-09T13:02:35.260Z,1.20
2023-05-09T13:12:39.755Z,1.30
2023-05-09T13:22:45.734Z,1.40
2023-05-09T13:32:49.673Z,1.08
2023-05-09T13:42:54.773Z,2.15
2023-05-09T13:52:58.616Z,2.13
2023-05-09T14:03:04.809Z,2.40
2023-05-09T14:13:08.908Z,1.70
2023-05-09T14:23:13.931Z,2.92
2023-05-09T14:33:17.584Z,3.03
2023-05-09T14:43:23.153Z,2.70
2023-05-09T14:53:27.812Z,2.47
2023-05-09T15:03:33.074Z,2.67
2023-05-09T15:13:36.811Z,4.13
2023-05-09T15:23:42.089Z,2.42
2023-05-09T15:33:46.428Z,2.70
2023-05-09T15:43:51.358Z,4.70
2023-05-09T15:53:54.959Z,3.47
2023-05-09T16:04:00.122Z,4.10
2023-05-09T16:14:05.098Z,4.00
2023-05-09T16:24:10.204Z,3.60
2023-05-09T16:34:13.833Z,3.38
2023-05-09T16:44:18.809Z,3.00
2023-05-09T16:54:23.256Z,3.35
2023-05-09T17:04:29.339Z,3.83
2023-05-09T17:14:33.085Z,5.80
2023-05-09T17:24:38.152Z,4.45
2023-05-09T17:34:41.802Z,4.68
2023-05-09T17:44:47.259Z,13.05
2023-05-09T17:54:51.051Z,4.93
2023-05-09T18:04:56.242Z,5.00
2023-05-09T18:14:59.976Z,5.85
2023-05-09T18:25:05.358Z,4.13
2023-05-09T18:35:10.388Z,4.88
2023-05-09T18:45:15.793Z,3.38
2023-05-09T18:55:21.839Z,5.13
2023-05-09T19:05:27.600Z,3.08
2023-05-09T19:15:31.698Z,4.43
2023-05-09T19:25:37.739Z,2.00
2023-05-09T19:35:42.892Z,2.63
2023-05-09T19:45:48.147Z,2.63
2023-05-09T19:55:52.004Z,2.65
2023-05-09T20:05:57.210Z,1.83
2023-05-09T20:16:02.694Z,1.00
2023-05-09T20:26:07.981Z,1.50
2023-05-09T20:36:11.975Z,1.30
2023-05-09T20:46:17.368Z,1.40
2023-05-09T20:56:21.438Z,1.30
2023-05-09T21:06:26.792Z,1.33
2023-05-09T21:16:30.951Z,1.25
2023-05-09T21:26:36.394Z,1.48
2023-05-09T21:36:41.526Z,1.27
2023-05-09T21:46:46.793Z,0.98
2023-05-09T21:56:50.571Z,1.42
2023-05-09T22:06:55.618Z,0.98
2023-05-09T22:16:59.407Z,0.80
2023-05-09T22:27:04.382Z,1.10
2023-05-09T22:37:08.329Z,1.05
2023-05-09T22:47:13.469Z,0.98
2023-05-09T22:57:17.988Z,1.25
2023-05-09T23:07:23.002Z,1.15
2023-05-09T23:17:26.731Z,0.98
2023-05-09T23:27:31.766Z,1.13
2023-05-09T23:37:35.402Z,1.25
2023-05-09T23:47:40.443Z,1.73
2023-05-09T23:57:44.358Z,0.90
